ETD49 OMDB-LTFM
Flight info
| Callsign | ETD49 |
|---|---|
| Flight time | 4h 29m |
| Altitude | 38000 |
| Route | RIDAP M557 TUMAK L602 GADSI M860 NINVA UM860 NAREN UT368 UMLEN UL718 ETESU UT888 SIV UL615 YAVRU UA4 ERSEN |
| Aircraft | A320/M-SDE3FGHIRWY/LB1 |
Departure
| Time | 2026-04-25 13:24 |
|---|---|
| Airport | Dubai International Airport (OMDB) |
Arrival
| Time | 2026-04-25 17:54 |
|---|---|
| Airport | İstanbul Airport (LTFM) |
| Time | Latitude | Longitude | Altitude | Speed | Heading |
|---|---|---|---|---|---|
| 2026-04-25 12:45 | 25.24916 | 55.36221 | 21 ft | 0 kts | 211° |
| 2026-04-25 13:07 | 25.24928 | 55.36229 | 23 ft | 4 kts | 211° |
| 2026-04-25 13:07 | 25.24951 | 55.36245 | 24 ft | 4 kts | 212° |
| 2026-04-25 13:08 | 25.24973 | 55.36262 | 24 ft | 4 kts | 226° |
| 2026-04-25 13:08 | 25.24988 | 55.36285 | 23 ft | 4 kts | 263° |
| 2026-04-25 13:08 | 25.24986 | 55.36303 | 21 ft | 1 kts | 302° |
| 2026-04-25 13:08 | 25.24985 | 55.36306 | 21 ft | 0 kts | 302° |
| 2026-04-25 13:12 | 25.24985 | 55.36304 | 21 ft | 2 kts | 302° |
| 2026-04-25 13:12 | 25.25012 | 55.36251 | 21 ft | 21 kts | 300° |
| 2026-04-25 13:13 | 25.25129 | 55.36047 | 17 ft | 25 kts | 301° |
| 2026-04-25 13:13 | 25.25227 | 55.35872 | 15 ft | 28 kts | 303° |
| 2026-04-25 13:13 | 25.25270 | 55.35792 | 15 ft | 0 kts | 292° |
| 2026-04-25 13:13 | 25.25273 | 55.35785 | 15 ft | 7 kts | 296° |
| 2026-04-25 13:14 | 25.25316 | 55.35705 | 14 ft | 14 kts | 298° |
| 2026-04-25 13:14 | 25.25383 | 55.35587 | 12 ft | 25 kts | 302° |
| 2026-04-25 13:14 | 25.25498 | 55.35379 | 14 ft | 38 kts | 300° |
| 2026-04-25 13:14 | 25.25598 | 55.35197 | 17 ft | 13 kts | 303° |
| 2026-04-25 13:15 | 25.25679 | 55.35161 | 18 ft | 15 kts | 22° |
| 2026-04-25 13:15 | 25.25781 | 55.35228 | 16 ft | 20 kts | 31° |
| 2026-04-25 13:15 | 25.25907 | 55.35311 | 17 ft | 22 kts | 33° |
| 2026-04-25 13:15 | 25.25970 | 55.35378 | 18 ft | 8 kts | 54° |
| 2026-04-25 13:16 | 25.25991 | 55.35449 | 18 ft | 11 kts | 84° |
| 2026-04-25 13:16 | 25.25976 | 55.35544 | 18 ft | 14 kts | 115° |
| 2026-04-25 13:16 | 25.25924 | 55.35649 | 18 ft | 19 kts | 118° |
| 2026-04-25 13:16 | 25.25836 | 55.35811 | 17 ft | 30 kts | 122° |
| 2026-04-25 13:17 | 25.25715 | 55.36020 | 19 ft | 34 kts | 121° |
| 2026-04-25 13:17 | 25.25594 | 55.36241 | 24 ft | 35 kts | 120° |
| 2026-04-25 13:17 | 25.25460 | 55.36482 | 23 ft | 37 kts | 121° |
| 2026-04-25 13:17 | 25.25321 | 55.36733 | 23 ft | 40 kts | 123° |
| 2026-04-25 13:18 | 25.25176 | 55.37000 | 29 ft | 40 kts | 122° |
| 2026-04-25 13:18 | 25.25032 | 55.37259 | 34 ft | 39 kts | 120° |
| 2026-04-25 13:18 | 25.24995 | 55.37324 | 37 ft | 4 kts | 122° |
| 2026-04-25 13:18 | 25.24979 | 55.37351 | 38 ft | 5 kts | 122° |
| 2026-04-25 13:19 | 25.24959 | 55.37387 | 37 ft | 6 kts | 121° |
| 2026-04-25 13:19 | 25.24932 | 55.37435 | 37 ft | 10 kts | 124° |
| 2026-04-25 13:19 | 25.24873 | 55.37543 | 37 ft | 26 kts | 121° |
| 2026-04-25 13:19 | 25.24836 | 55.37607 | 38 ft | 33 kts | 122° |
| 2026-04-25 13:20 | 25.24784 | 55.37702 | 38 ft | 8 kts | 118° |
| 2026-04-25 13:20 | 25.24739 | 55.37789 | 39 ft | 12 kts | 122° |
| 2026-04-25 13:20 | 25.24693 | 55.37874 | 39 ft | 14 kts | 117° |
| 2026-04-25 13:20 | 25.24691 | 55.37965 | 40 ft | 10 kts | 46° |
| 2026-04-25 13:21 | 25.24698 | 55.37971 | 40 ft | 0 kts | 33° |
| 2026-04-25 13:21 | 25.24703 | 55.37975 | 40 ft | 5 kts | 33° |
| 2026-04-25 13:21 | 25.24774 | 55.38007 | 40 ft | 14 kts | 4° |
| 2026-04-25 13:22 | 25.24846 | 55.37947 | 40 ft | 6 kts | 301° |
| 2026-04-25 13:22 | 25.24847 | 55.37946 | 40 ft | 0 kts | 301° |
| 2026-04-25 13:23 | 25.24847 | 55.37945 | 40 ft | 1 kts | 301° |
| 2026-04-25 13:23 | 25.24888 | 55.37871 | 40 ft | 29 kts | 302° |
| 2026-04-25 13:23 | 25.25122 | 55.37452 | 39 ft | 99 kts | 302° |
| 2026-04-25 13:23 | 25.25594 | 55.36605 | 30 ft | 154 kts | 301° |
| 2026-04-25 13:24 | 25.26207 | 55.35511 | 499 ft | 160 kts | 303° |
| 2026-04-25 13:24 | 25.26770 | 55.34503 | 1231 ft | 161 kts | 304° |
| 2026-04-25 13:24 | 25.27372 | 55.33394 | 1778 ft | 175 kts | 303° |
| 2026-04-25 13:24 | 25.28013 | 55.32210 | 2331 ft | 183 kts | 303° |
| 2026-04-25 13:25 | 25.28690 | 55.30998 | 2883 ft | 186 kts | 304° |
| 2026-04-25 13:25 | 25.29378 | 55.29769 | 3460 ft | 189 kts | 303° |
| 2026-04-25 13:25 | 25.30108 | 55.28528 | 3916 ft | 200 kts | 304° |
| 2026-04-25 13:25 | 25.30912 | 55.27260 | 3991 ft | 202 kts | 305° |
| 2026-04-25 13:26 | 25.31732 | 55.25989 | 4007 ft | 203 kts | 306° |
| 2026-04-25 13:26 | 25.32550 | 55.24720 | 4008 ft | 203 kts | 306° |
| 2026-04-25 13:26 | 25.33372 | 55.23441 | 4055 ft | 212 kts | 305° |
| 2026-04-25 13:26 | 25.34274 | 55.22035 | 4365 ft | 233 kts | 305° |
| 2026-04-25 13:27 | 25.35198 | 55.20536 | 5112 ft | 237 kts | 298° |
| 2026-04-25 13:27 | 25.35753 | 55.18805 | 5862 ft | 244 kts | 279° |
| 2026-04-25 13:27 | 25.35806 | 55.16841 | 6272 ft | 267 kts | 267° |
| 2026-04-25 13:27 | 25.35719 | 55.14755 | 6957 ft | 275 kts | 267° |
| 2026-04-25 13:28 | 25.35632 | 55.12625 | 7774 ft | 279 kts | 267° |
| 2026-04-25 13:28 | 25.35605 | 55.11928 | 8045 ft | 281 kts | 267° |
| 2026-04-25 13:28 | 25.35468 | 55.08279 | 9459 ft | 286 kts | 267° |
| 2026-04-25 13:28 | 25.35387 | 55.06084 | 10132 ft | 296 kts | 267° |
| 2026-04-25 13:29 | 25.35300 | 55.03720 | 10387 ft | 319 kts | 267° |
| 2026-04-25 13:29 | 25.35208 | 55.01182 | 10660 ft | 339 kts | 267° |
| 2026-04-25 13:29 | 25.35112 | 54.98550 | 11235 ft | 346 kts | 267° |
| 2026-04-25 13:30 | 25.34915 | 54.93161 | 12607 ft | 354 kts | 267° |
| 2026-04-25 13:30 | 25.35057 | 54.90424 | 13287 ft | 360 kts | 278° |
| 2026-04-25 13:30 | 25.35714 | 54.87731 | 13939 ft | 365 kts | 286° |
| 2026-04-25 13:31 | 25.37277 | 54.82337 | 15236 ft | 370 kts | 286° |
| 2026-04-25 13:31 | 25.38055 | 54.79617 | 15892 ft | 373 kts | 285° |
| 2026-04-25 13:31 | 25.38833 | 54.76876 | 16548 ft | 375 kts | 285° |
| 2026-04-25 13:31 | 25.39618 | 54.74114 | 17214 ft | 378 kts | 285° |
| 2026-04-25 13:32 | 25.40141 | 54.72280 | 17654 ft | 379 kts | 285° |
| 2026-04-25 13:32 | 25.40940 | 54.69482 | 18310 ft | 382 kts | 285° |
| 2026-04-25 13:32 | 25.41742 | 54.66670 | 18916 ft | 385 kts | 285° |
| 2026-04-25 13:32 | 25.42546 | 54.63839 | 19557 ft | 387 kts | 285° |
| 2026-04-25 13:33 | 25.43357 | 54.60991 | 20210 ft | 388 kts | 285° |
| 2026-04-25 13:33 | 25.44187 | 54.58138 | 20861 ft | 390 kts | 285° |
| 2026-04-25 13:33 | 25.45035 | 54.55282 | 21498 ft | 392 kts | 285° |
| 2026-04-25 13:33 | 25.45605 | 54.53374 | 21905 ft | 393 kts | 285° |
| 2026-04-25 13:34 | 25.46756 | 54.49526 | 22703 ft | 395 kts | 285° |
| 2026-04-25 13:34 | 25.47615 | 54.46628 | 23279 ft | 397 kts | 285° |
| 2026-04-25 13:34 | 25.48475 | 54.43716 | 23787 ft | 399 kts | 285° |
| 2026-04-25 13:34 | 25.49327 | 54.40829 | 24202 ft | 401 kts | 285° |
| 2026-04-25 13:35 | 25.50197 | 54.37882 | 24627 ft | 404 kts | 285° |
| 2026-04-25 13:35 | 25.51083 | 54.34877 | 25051 ft | 407 kts | 285° |
| 2026-04-25 13:35 | 25.51953 | 54.31930 | 25448 ft | 409 kts | 285° |
| 2026-04-25 13:35 | 25.52837 | 54.28927 | 25846 ft | 412 kts | 285° |
| 2026-04-25 13:36 | 25.53726 | 54.25900 | 26248 ft | 414 kts | 285° |
| 2026-04-25 13:36 | 25.54619 | 54.22855 | 26638 ft | 417 kts | 285° |
| 2026-04-25 13:36 | 25.55517 | 54.19784 | 27030 ft | 419 kts | 285° |
| 2026-04-25 13:36 | 25.56420 | 54.16701 | 27425 ft | 422 kts | 285° |
| 2026-04-25 13:37 | 25.57331 | 54.13600 | 27816 ft | 425 kts | 285° |
| 2026-04-25 13:37 | 25.58246 | 54.10480 | 28212 ft | 427 kts | 285° |
| 2026-04-25 13:37 | 25.59166 | 54.07340 | 28599 ft | 430 kts | 285° |
| 2026-04-25 13:37 | 25.60086 | 54.04176 | 28987 ft | 432 kts | 285° |
| 2026-04-25 13:38 | 25.60998 | 54.00996 | 29369 ft | 435 kts | 284° |
| 2026-04-25 13:38 | 25.61907 | 53.97792 | 29741 ft | 437 kts | 284° |
| 2026-04-25 13:38 | 25.62817 | 53.94565 | 30078 ft | 440 kts | 284° |
| 2026-04-25 13:38 | 25.63734 | 53.91323 | 30401 ft | 441 kts | 284° |
| 2026-04-25 13:39 | 25.64656 | 53.88081 | 30798 ft | 441 kts | 284° |
| 2026-04-25 13:39 | 25.65577 | 53.84849 | 31286 ft | 438 kts | 284° |
| 2026-04-25 13:39 | 25.66489 | 53.81645 | 31784 ft | 435 kts | 284° |
| 2026-04-25 13:39 | 25.67395 | 53.78454 | 32285 ft | 432 kts | 284° |
| 2026-04-25 13:40 | 25.68293 | 53.75287 | 32791 ft | 429 kts | 284° |
| 2026-04-25 13:40 | 25.69181 | 53.72143 | 33303 ft | 426 kts | 284° |
| 2026-04-25 13:40 | 25.70060 | 53.69020 | 33823 ft | 423 kts | 284° |
| 2026-04-25 13:40 | 25.70937 | 53.65903 | 34278 ft | 420 kts | 284° |
| 2026-04-25 13:41 | 25.71803 | 53.62825 | 34764 ft | 417 kts | 284° |
| 2026-04-25 13:41 | 25.72663 | 53.59769 | 35254 ft | 413 kts | 284° |
| 2026-04-25 13:41 | 25.73514 | 53.56741 | 35742 ft | 409 kts | 285° |
| 2026-04-25 13:41 | 25.74355 | 53.53743 | 36215 ft | 405 kts | 285° |
| 2026-04-25 13:42 | 25.75187 | 53.50778 | 36685 ft | 401 kts | 285° |
| 2026-04-25 13:42 | 25.76010 | 53.47837 | 37149 ft | 397 kts | 286° |
| 2026-04-25 13:42 | 25.76826 | 53.44922 | 37607 ft | 394 kts | 286° |
| 2026-04-25 13:42 | 25.77635 | 53.42031 | 37875 ft | 392 kts | 286° |
| 2026-04-25 13:43 | 25.78442 | 53.39156 | 37915 ft | 389 kts | 286° |
| 2026-04-25 13:43 | 25.80048 | 53.33431 | 37912 ft | 388 kts | 286° |
| 2026-04-25 13:44 | 25.81644 | 53.27724 | 37918 ft | 387 kts | 286° |
| 2026-04-25 13:44 | 25.83234 | 53.22022 | 37917 ft | 386 kts | 286° |
| 2026-04-25 13:45 | 25.85063 | 53.16423 | 37923 ft | 387 kts | 292° |
| 2026-04-25 13:45 | 25.87285 | 53.10976 | 37926 ft | 387 kts | 292° |
| 2026-04-25 13:46 | 25.89505 | 53.05522 | 37932 ft | 388 kts | 292° |
| 2026-04-25 13:46 | 25.91721 | 53.00065 | 37939 ft | 388 kts | 292° |
| 2026-04-25 13:47 | 25.93924 | 52.94645 | 37943 ft | 388 kts | 292° |
| 2026-04-25 13:47 | 25.96148 | 52.89148 | 37940 ft | 387 kts | 292° |
| 2026-04-25 13:48 | 25.98346 | 52.83726 | 37942 ft | 387 kts | 292° |
| 2026-04-25 13:48 | 26.00558 | 52.78261 | 37948 ft | 388 kts | 292° |
| 2026-04-25 13:49 | 26.02794 | 52.72801 | 37948 ft | 388 kts | 293° |
| 2026-04-25 13:49 | 26.05204 | 52.67420 | 37951 ft | 388 kts | 294° |
| 2026-04-25 13:50 | 26.07665 | 52.62085 | 37951 ft | 388 kts | 294° |
| 2026-04-25 13:50 | 26.10103 | 52.56727 | 37951 ft | 387 kts | 294° |
| 2026-04-25 13:51 | 26.12513 | 52.51367 | 37950 ft | 387 kts | 294° |
| 2026-04-25 13:51 | 26.14907 | 52.46042 | 37950 ft | 387 kts | 294° |
| 2026-04-25 13:52 | 26.17320 | 52.40689 | 37951 ft | 387 kts | 294° |
| 2026-04-25 13:52 | 26.19729 | 52.35340 | 37955 ft | 386 kts | 294° |
| 2026-04-25 13:53 | 26.22129 | 52.29992 | 37954 ft | 386 kts | 294° |
| 2026-04-25 13:53 | 26.24482 | 52.24622 | 37959 ft | 385 kts | 293° |
| 2026-04-25 13:54 | 26.26796 | 52.19239 | 37958 ft | 385 kts | 292° |
| 2026-04-25 13:54 | 26.29110 | 52.13849 | 37956 ft | 385 kts | 292° |
| 2026-04-25 13:55 | 26.31430 | 52.08474 | 37957 ft | 385 kts | 293° |
| 2026-04-25 13:55 | 26.33750 | 52.03105 | 37957 ft | 384 kts | 292° |
| 2026-04-25 13:56 | 26.36068 | 51.97739 | 37954 ft | 384 kts | 292° |
| 2026-04-25 13:56 | 26.38210 | 51.92300 | 37950 ft | 382 kts | 288° |
| 2026-04-25 13:57 | 26.40073 | 51.86746 | 37948 ft | 382 kts | 288° |
| 2026-04-25 13:57 | 26.41929 | 51.81233 | 37948 ft | 382 kts | 288° |
| 2026-04-25 13:58 | 26.43797 | 51.75688 | 37951 ft | 382 kts | 288° |
| 2026-04-25 13:58 | 26.45655 | 51.70142 | 37947 ft | 381 kts | 288° |
| 2026-04-25 13:59 | 26.47509 | 51.64596 | 37950 ft | 381 kts | 288° |
| 2026-04-25 13:59 | 26.49351 | 51.59055 | 37953 ft | 381 kts | 288° |
| 2026-04-25 14:00 | 26.50573 | 51.55376 | 37947 ft | 381 kts | 288° |
| 2026-04-25 14:00 | 26.53043 | 51.47968 | 37950 ft | 380 kts | 288° |
| 2026-04-25 14:01 | 26.54886 | 51.42434 | 37953 ft | 380 kts | 288° |
| 2026-04-25 14:01 | 26.56721 | 51.36900 | 37950 ft | 380 kts | 288° |
| 2026-04-25 14:02 | 26.58540 | 51.31401 | 37955 ft | 380 kts | 288° |
| 2026-04-25 14:02 | 26.60367 | 51.25866 | 37958 ft | 380 kts | 288° |
| 2026-04-25 14:03 | 26.62196 | 51.20326 | 37967 ft | 380 kts | 288° |
| 2026-04-25 14:03 | 26.64024 | 51.14794 | 37963 ft | 379 kts | 288° |
| 2026-04-25 14:04 | 26.65848 | 51.09269 | 37966 ft | 379 kts | 288° |
| 2026-04-25 14:04 | 26.67674 | 51.03743 | 37972 ft | 378 kts | 288° |
| 2026-04-25 14:05 | 26.69485 | 50.98218 | 37977 ft | 378 kts | 288° |
| 2026-04-25 14:05 | 26.71259 | 50.92676 | 37978 ft | 378 kts | 287° |
| 2026-04-25 14:06 | 26.73018 | 50.87128 | 37985 ft | 378 kts | 287° |
| 2026-04-25 14:06 | 26.74788 | 50.81592 | 37987 ft | 378 kts | 287° |
| 2026-04-25 14:07 | 26.76554 | 50.76055 | 37983 ft | 377 kts | 287° |
| 2026-04-25 14:07 | 26.78312 | 50.70529 | 37987 ft | 377 kts | 287° |
| 2026-04-25 14:08 | 26.80301 | 50.65103 | 37987 ft | 380 kts | 297° |
| 2026-04-25 14:08 | 26.83529 | 50.60403 | 37984 ft | 384 kts | 304° |
| 2026-04-25 14:09 | 26.86918 | 50.55769 | 37983 ft | 385 kts | 303° |
| 2026-04-25 14:09 | 26.90300 | 50.51123 | 37983 ft | 385 kts | 303° |
| 2026-04-25 14:10 | 26.93765 | 50.46537 | 37979 ft | 387 kts | 306° |
| 2026-04-25 14:10 | 26.97486 | 50.42156 | 37979 ft | 388 kts | 308° |
| 2026-04-25 14:11 | 27.01252 | 50.37814 | 37981 ft | 388 kts | 307° |
| 2026-04-25 14:11 | 27.04975 | 50.33438 | 37982 ft | 388 kts | 307° |
| 2026-04-25 14:12 | 27.08644 | 50.29014 | 37986 ft | 387 kts | 306° |
| 2026-04-25 14:12 | 27.12294 | 50.24562 | 37985 ft | 387 kts | 306° |
| 2026-04-25 14:13 | 27.15985 | 50.20154 | 37983 ft | 391 kts | 311° |
| 2026-04-25 14:13 | 27.20376 | 50.16426 | 37985 ft | 396 kts | 316° |
| 2026-04-25 14:14 | 27.24824 | 50.12768 | 37987 ft | 397 kts | 316° |
| 2026-04-25 14:14 | 27.29251 | 50.09121 | 37988 ft | 397 kts | 315° |
| 2026-04-25 14:15 | 27.33695 | 50.05443 | 37990 ft | 397 kts | 315° |
| 2026-04-25 14:15 | 27.38132 | 50.01732 | 37994 ft | 396 kts | 314° |
| 2026-04-25 14:16 | 27.42465 | 49.97917 | 37991 ft | 395 kts | 314° |
| 2026-04-25 14:16 | 27.46777 | 49.94070 | 37993 ft | 395 kts | 314° |
| 2026-04-25 14:17 | 27.50370 | 49.90886 | 37995 ft | 396 kts | 314° |
| 2026-04-25 14:17 | 27.54706 | 49.87066 | 37984 ft | 396 kts | 314° |
| 2026-04-25 14:18 | 27.59046 | 49.83246 | 37992 ft | 396 kts | 314° |
| 2026-04-25 14:18 | 27.63382 | 49.79424 | 37998 ft | 396 kts | 314° |
| 2026-04-25 14:19 | 27.67721 | 49.75597 | 37986 ft | 396 kts | 314° |
| 2026-04-25 14:19 | 27.72059 | 49.71761 | 37995 ft | 396 kts | 314° |
| 2026-04-25 14:20 | 27.76389 | 49.67920 | 37991 ft | 396 kts | 314° |
| 2026-04-25 14:20 | 27.80721 | 49.64068 | 37987 ft | 396 kts | 314° |
| 2026-04-25 14:21 | 27.85049 | 49.60204 | 37998 ft | 396 kts | 313° |
| 2026-04-25 14:21 | 27.89373 | 49.56333 | 37995 ft | 396 kts | 313° |
| 2026-04-25 14:22 | 27.93671 | 49.52489 | 37995 ft | 397 kts | 314° |
| 2026-04-25 14:22 | 27.97999 | 49.48616 | 37995 ft | 397 kts | 313° |
| 2026-04-25 14:23 | 28.02326 | 49.44733 | 37993 ft | 397 kts | 313° |
| 2026-04-25 14:23 | 28.06644 | 49.40831 | 37990 ft | 397 kts | 313° |
| 2026-04-25 14:24 | 28.10942 | 49.36903 | 37996 ft | 397 kts | 313° |
| 2026-04-25 14:24 | 28.15243 | 49.32968 | 37995 ft | 397 kts | 313° |
| 2026-04-25 14:25 | 28.19541 | 49.29024 | 37994 ft | 397 kts | 313° |
| 2026-04-25 14:25 | 28.23851 | 49.25078 | 37996 ft | 398 kts | 313° |
| 2026-04-25 14:26 | 28.28158 | 49.21138 | 37995 ft | 398 kts | 313° |
| 2026-04-25 14:26 | 28.32465 | 49.17188 | 38000 ft | 398 kts | 313° |
| 2026-04-25 14:27 | 28.36747 | 49.13253 | 37997 ft | 398 kts | 313° |
| 2026-04-25 14:27 | 28.41165 | 49.09428 | 37996 ft | 403 kts | 317° |
| 2026-04-25 14:28 | 28.45828 | 49.05872 | 37993 ft | 403 kts | 317° |
| 2026-04-25 14:28 | 28.50481 | 49.02304 | 37992 ft | 403 kts | 317° |
| 2026-04-25 14:29 | 28.55133 | 48.98729 | 37998 ft | 404 kts | 317° |
| 2026-04-25 14:29 | 28.59789 | 48.95151 | 37996 ft | 404 kts | 316° |
| 2026-04-25 14:30 | 28.64448 | 48.91568 | 37995 ft | 404 kts | 316° |
| 2026-04-25 14:30 | 28.71438 | 48.86199 | 37991 ft | 404 kts | 316° |
| 2026-04-25 14:31 | 28.76097 | 48.82605 | 37995 ft | 404 kts | 316° |
| 2026-04-25 14:31 | 28.80755 | 48.79005 | 37999 ft | 404 kts | 316° |
| 2026-04-25 14:32 | 28.85424 | 48.75421 | 37994 ft | 405 kts | 317° |
| 2026-04-25 14:32 | 28.90105 | 48.71843 | 37995 ft | 405 kts | 317° |
| 2026-04-25 14:33 | 28.94785 | 48.68252 | 37993 ft | 405 kts | 317° |
| 2026-04-25 14:33 | 28.99466 | 48.64657 | 37999 ft | 406 kts | 317° |
| 2026-04-25 14:34 | 29.04149 | 48.61058 | 37997 ft | 406 kts | 316° |
| 2026-04-25 14:34 | 29.08834 | 48.57450 | 37995 ft | 406 kts | 316° |
| 2026-04-25 14:35 | 29.13525 | 48.53835 | 37996 ft | 406 kts | 317° |
| 2026-04-25 14:35 | 29.18185 | 48.50235 | 37996 ft | 407 kts | 316° |
| 2026-04-25 14:36 | 29.22871 | 48.46609 | 37994 ft | 407 kts | 316° |
| 2026-04-25 14:36 | 29.27570 | 48.42977 | 37994 ft | 407 kts | 317° |
| 2026-04-25 14:37 | 29.32268 | 48.39345 | 37990 ft | 407 kts | 316° |
| 2026-04-25 14:37 | 29.36961 | 48.35711 | 37993 ft | 407 kts | 316° |
| 2026-04-25 14:38 | 29.41659 | 48.32072 | 37991 ft | 408 kts | 317° |
| 2026-04-25 14:38 | 29.46441 | 48.28524 | 37995 ft | 411 kts | 320° |
| 2026-04-25 14:39 | 29.51440 | 48.25276 | 37999 ft | 414 kts | 321° |
| 2026-04-25 14:39 | 29.56478 | 48.22077 | 37989 ft | 413 kts | 321° |
| 2026-04-25 14:40 | 29.61479 | 48.18819 | 37984 ft | 413 kts | 320° |
| 2026-04-25 14:40 | 29.66452 | 48.15526 | 37986 ft | 413 kts | 320° |
| 2026-04-25 14:41 | 29.71430 | 48.12223 | 37983 ft | 413 kts | 320° |
| 2026-04-25 14:41 | 29.76413 | 48.08926 | 37986 ft | 413 kts | 320° |
| 2026-04-25 14:42 | 29.80556 | 48.06192 | 37985 ft | 413 kts | 320° |
| 2026-04-25 14:42 | 29.86380 | 48.02340 | 37980 ft | 413 kts | 320° |
| 2026-04-25 14:43 | 29.91361 | 47.99027 | 37977 ft | 413 kts | 320° |
| 2026-04-25 14:43 | 29.96347 | 47.95713 | 37976 ft | 414 kts | 320° |
| 2026-04-25 14:44 | 30.01271 | 47.92314 | 37974 ft | 406 kts | 314° |
| 2026-04-25 14:44 | 30.05170 | 47.87891 | 37969 ft | 392 kts | 303° |
| 2026-04-25 14:45 | 30.08758 | 47.83097 | 37964 ft | 392 kts | 303° |
| 2026-04-25 14:45 | 30.12312 | 47.78365 | 37959 ft | 393 kts | 303° |
| 2026-04-25 14:46 | 30.15889 | 47.73595 | 37961 ft | 393 kts | 303° |
| 2026-04-25 14:46 | 30.19464 | 47.68815 | 37955 ft | 393 kts | 302° |
| 2026-04-25 14:47 | 30.22453 | 47.64802 | 37951 ft | 393 kts | 302° |
| 2026-04-25 14:47 | 30.26605 | 47.59235 | 37951 ft | 393 kts | 302° |
| 2026-04-25 14:48 | 30.30178 | 47.54435 | 37953 ft | 393 kts | 302° |
| 2026-04-25 14:48 | 30.33752 | 47.49637 | 37952 ft | 394 kts | 302° |
| 2026-04-25 14:49 | 30.37330 | 47.44834 | 37943 ft | 394 kts | 302° |
| 2026-04-25 14:49 | 30.40901 | 47.40025 | 37932 ft | 394 kts | 302° |
| 2026-04-25 14:50 | 30.44474 | 47.35207 | 37926 ft | 394 kts | 302° |
| 2026-04-25 14:50 | 30.48039 | 47.30386 | 37930 ft | 394 kts | 302° |
| 2026-04-25 14:51 | 30.51606 | 47.25556 | 37924 ft | 394 kts | 302° |
| 2026-04-25 14:51 | 30.55147 | 47.20760 | 37927 ft | 394 kts | 302° |
| 2026-04-25 14:52 | 30.59203 | 47.16344 | 37933 ft | 406 kts | 311° |
| 2026-04-25 14:52 | 30.62900 | 47.12904 | 37940 ft | 406 kts | 311° |
| 2026-04-25 14:53 | 30.68023 | 47.08134 | 37946 ft | 406 kts | 311° |
| 2026-04-25 14:53 | 30.72429 | 47.04014 | 37949 ft | 406 kts | 311° |
| 2026-04-25 14:54 | 30.76833 | 46.99888 | 37952 ft | 407 kts | 311° |
| 2026-04-25 14:54 | 30.81243 | 46.95762 | 37947 ft | 407 kts | 311° |
| 2026-04-25 14:55 | 30.85648 | 46.91634 | 37950 ft | 407 kts | 311° |
| 2026-04-25 14:55 | 30.90057 | 46.87490 | 37954 ft | 408 kts | 311° |
| 2026-04-25 14:56 | 30.94469 | 46.83334 | 37949 ft | 408 kts | 311° |
| 2026-04-25 14:56 | 30.98895 | 46.79170 | 37953 ft | 409 kts | 311° |
| 2026-04-25 14:57 | 31.03296 | 46.75016 | 37956 ft | 410 kts | 311° |
| 2026-04-25 14:57 | 31.07723 | 46.70827 | 37960 ft | 410 kts | 311° |
| 2026-04-25 14:58 | 31.12160 | 46.66627 | 37964 ft | 411 kts | 311° |
| 2026-04-25 14:58 | 31.16607 | 46.62427 | 37966 ft | 412 kts | 311° |
| 2026-04-25 14:59 | 31.21064 | 46.58220 | 37973 ft | 412 kts | 311° |
| 2026-04-25 14:59 | 31.25517 | 46.53993 | 37974 ft | 412 kts | 311° |
| 2026-04-25 15:00 | 31.29961 | 46.49767 | 37977 ft | 412 kts | 311° |
| 2026-04-25 15:00 | 31.34412 | 46.45524 | 37978 ft | 413 kts | 311° |
| 2026-04-25 15:01 | 31.38871 | 46.41284 | 37979 ft | 413 kts | 311° |
| 2026-04-25 15:01 | 31.43329 | 46.37044 | 37985 ft | 413 kts | 311° |
| 2026-04-25 15:02 | 31.47783 | 46.32792 | 37986 ft | 413 kts | 311° |
| 2026-04-25 15:02 | 31.52230 | 46.28536 | 37985 ft | 413 kts | 311° |
| 2026-04-25 15:03 | 31.55933 | 46.24987 | 37998 ft | 413 kts | 311° |
| 2026-04-25 15:03 | 31.60390 | 46.20717 | 37993 ft | 414 kts | 311° |
| 2026-04-25 15:04 | 31.64846 | 46.16446 | 37998 ft | 413 kts | 311° |
| 2026-04-25 15:04 | 31.69297 | 46.12171 | 38002 ft | 413 kts | 311° |
| 2026-04-25 15:05 | 31.73741 | 46.07886 | 38006 ft | 414 kts | 311° |
| 2026-04-25 15:06 | 31.80379 | 46.01388 | 38003 ft | 413 kts | 310° |
| 2026-04-25 15:06 | 31.84769 | 45.97008 | 38010 ft | 414 kts | 310° |
| 2026-04-25 15:07 | 31.89159 | 45.92630 | 38017 ft | 415 kts | 310° |
| 2026-04-25 15:07 | 31.93579 | 45.88247 | 38003 ft | 415 kts | 310° |
| 2026-04-25 15:08 | 31.97974 | 45.83882 | 37999 ft | 416 kts | 310° |
| 2026-04-25 15:08 | 32.02397 | 45.79472 | 38011 ft | 417 kts | 310° |
| 2026-04-25 15:09 | 32.06819 | 45.75046 | 38001 ft | 418 kts | 310° |
| 2026-04-25 15:09 | 32.13480 | 45.68391 | 38008 ft | 419 kts | 310° |
| 2026-04-25 15:10 | 32.17940 | 45.63938 | 38008 ft | 420 kts | 310° |
| 2026-04-25 15:11 | 32.24634 | 45.57222 | 38014 ft | 421 kts | 310° |
| 2026-04-25 15:11 | 32.29098 | 45.52734 | 38018 ft | 421 kts | 311° |
| 2026-04-25 15:12 | 32.35804 | 45.45989 | 38016 ft | 422 kts | 310° |
| 2026-04-25 15:12 | 32.39517 | 45.42247 | 38018 ft | 422 kts | 311° |
| 2026-04-25 15:13 | 32.46945 | 45.34744 | 38016 ft | 422 kts | 311° |
| 2026-04-25 15:14 | 32.51412 | 45.30228 | 38013 ft | 422 kts | 311° |
| 2026-04-25 15:14 | 32.55955 | 45.25797 | 38007 ft | 428 kts | 317° |
| 2026-04-25 15:15 | 32.60920 | 45.21857 | 38008 ft | 430 kts | 318° |
| 2026-04-25 15:15 | 32.65895 | 45.17927 | 38009 ft | 430 kts | 318° |
| 2026-04-25 15:16 | 32.70874 | 45.13986 | 38000 ft | 430 kts | 318° |
| 2026-04-25 15:16 | 32.78343 | 45.08035 | 37994 ft | 431 kts | 318° |
| 2026-04-25 15:17 | 32.85828 | 45.02062 | 37994 ft | 432 kts | 318° |
| 2026-04-25 15:18 | 32.90824 | 44.98072 | 37992 ft | 433 kts | 318° |
| 2026-04-25 15:18 | 32.98334 | 44.92080 | 37992 ft | 433 kts | 318° |
| 2026-04-25 15:19 | 33.02494 | 44.88747 | 37989 ft | 433 kts | 318° |
| 2026-04-25 15:19 | 33.08310 | 44.84076 | 37993 ft | 434 kts | 318° |
| 2026-04-25 15:20 | 33.13314 | 44.80054 | 37992 ft | 434 kts | 318° |
| 2026-04-25 15:20 | 33.18344 | 44.76067 | 37991 ft | 438 kts | 322° |
| 2026-04-25 15:21 | 33.24168 | 44.73483 | 37991 ft | 459 kts | 342° |
| 2026-04-25 15:21 | 33.30645 | 44.73035 | 37996 ft | 469 kts | 351° |
| 2026-04-25 15:22 | 33.37177 | 44.72844 | 37999 ft | 469 kts | 351° |
| 2026-04-25 15:22 | 33.43706 | 44.72640 | 38000 ft | 469 kts | 351° |
| 2026-04-25 15:23 | 33.50228 | 44.72434 | 37999 ft | 468 kts | 351° |
| 2026-04-25 15:23 | 33.56695 | 44.72233 | 37996 ft | 468 kts | 351° |
| 2026-04-25 15:24 | 33.63205 | 44.72032 | 37997 ft | 468 kts | 351° |
| 2026-04-25 15:24 | 33.68621 | 44.71860 | 37992 ft | 468 kts | 351° |
| 2026-04-25 15:25 | 33.76223 | 44.71613 | 37997 ft | 467 kts | 351° |
| 2026-04-25 15:25 | 33.82729 | 44.71406 | 37992 ft | 467 kts | 351° |
| 2026-04-25 15:26 | 33.89231 | 44.71206 | 37994 ft | 468 kts | 351° |
| 2026-04-25 15:26 | 33.95732 | 44.71009 | 37994 ft | 468 kts | 351° |
| 2026-04-25 15:27 | 34.02242 | 44.70803 | 37996 ft | 468 kts | 351° |
| 2026-04-25 15:28 | 34.12000 | 44.70487 | 38001 ft | 468 kts | 351° |
| 2026-04-25 15:28 | 34.18469 | 44.70269 | 38005 ft | 468 kts | 351° |
| 2026-04-25 15:29 | 34.24979 | 44.70065 | 38007 ft | 468 kts | 351° |
| 2026-04-25 15:29 | 34.31489 | 44.69863 | 38009 ft | 468 kts | 351° |
| 2026-04-25 15:30 | 34.37989 | 44.69658 | 38011 ft | 468 kts | 351° |
| 2026-04-25 15:30 | 34.44500 | 44.69458 | 38018 ft | 467 kts | 352° |
| 2026-04-25 15:31 | 34.50917 | 44.68806 | 38017 ft | 456 kts | 340° |
| 2026-04-25 15:31 | 34.56800 | 44.66341 | 38021 ft | 445 kts | 331° |
| 2026-04-25 15:32 | 34.62561 | 44.63563 | 38016 ft | 445 kts | 331° |
| 2026-04-25 15:32 | 34.68319 | 44.60799 | 38021 ft | 445 kts | 331° |
| 2026-04-25 15:33 | 34.76960 | 44.56654 | 38022 ft | 445 kts | 332° |
| 2026-04-25 15:33 | 34.82709 | 44.53881 | 38025 ft | 445 kts | 331° |
| 2026-04-25 15:34 | 34.88423 | 44.51097 | 38024 ft | 445 kts | 331° |
| 2026-04-25 15:34 | 34.92271 | 44.49221 | 38022 ft | 445 kts | 332° |
| 2026-04-25 15:35 | 35.02806 | 44.44111 | 38019 ft | 445 kts | 332° |
| 2026-04-25 15:36 | 35.11445 | 44.39917 | 38020 ft | 445 kts | 332° |
| 2026-04-25 15:36 | 35.17195 | 44.37109 | 38022 ft | 445 kts | 332° |
| 2026-04-25 15:37 | 35.22947 | 44.34295 | 38018 ft | 445 kts | 332° |
| 2026-04-25 15:37 | 35.28704 | 44.31481 | 38017 ft | 446 kts | 332° |
| 2026-04-25 15:38 | 35.34435 | 44.28597 | 38018 ft | 445 kts | 331° |
| 2026-04-25 15:38 | 35.40135 | 44.25633 | 38021 ft | 445 kts | 330° |
| 2026-04-25 15:39 | 35.45839 | 44.22661 | 38021 ft | 445 kts | 330° |
| 2026-04-25 15:39 | 35.51512 | 44.19730 | 38022 ft | 445 kts | 331° |
| 2026-04-25 15:40 | 35.55332 | 44.17761 | 38019 ft | 445 kts | 331° |
| 2026-04-25 15:40 | 35.62940 | 44.13840 | 38010 ft | 445 kts | 331° |
| 2026-04-25 15:41 | 35.68656 | 44.10872 | 38012 ft | 446 kts | 331° |
| 2026-04-25 15:41 | 35.74375 | 44.07901 | 38014 ft | 446 kts | 331° |
| 2026-04-25 15:42 | 35.80096 | 44.04918 | 38016 ft | 447 kts | 331° |
| 2026-04-25 15:42 | 35.85831 | 44.01936 | 38022 ft | 447 kts | 331° |
| 2026-04-25 15:43 | 35.91561 | 43.98942 | 38024 ft | 447 kts | 331° |
| 2026-04-25 15:43 | 35.97306 | 43.95937 | 38021 ft | 448 kts | 331° |
| 2026-04-25 15:44 | 36.03039 | 43.92946 | 38025 ft | 448 kts | 331° |
| 2026-04-25 15:44 | 36.08797 | 43.89945 | 38024 ft | 449 kts | 331° |
| 2026-04-25 15:45 | 36.14561 | 43.86921 | 38021 ft | 449 kts | 330° |
| 2026-04-25 15:45 | 36.18369 | 43.84922 | 38022 ft | 450 kts | 330° |
| 2026-04-25 15:46 | 36.26080 | 43.80856 | 38023 ft | 450 kts | 330° |
| 2026-04-25 15:46 | 36.31812 | 43.77844 | 38033 ft | 451 kts | 331° |
| 2026-04-25 15:47 | 36.37598 | 43.74864 | 38044 ft | 451 kts | 331° |
| 2026-04-25 15:47 | 36.43408 | 43.71867 | 38059 ft | 451 kts | 331° |
| 2026-04-25 15:48 | 36.48247 | 43.69358 | 38070 ft | 450 kts | 331° |
| 2026-04-25 15:48 | 36.54029 | 43.66344 | 38088 ft | 450 kts | 331° |
| 2026-04-25 15:49 | 36.59780 | 43.63344 | 38093 ft | 451 kts | 331° |
| 2026-04-25 15:49 | 36.65569 | 43.60330 | 38102 ft | 451 kts | 331° |
| 2026-04-25 15:50 | 36.71365 | 43.57298 | 38105 ft | 451 kts | 331° |
| 2026-04-25 15:50 | 36.77145 | 43.54243 | 38114 ft | 451 kts | 330° |
| 2026-04-25 15:51 | 36.81904 | 43.51602 | 38118 ft | 450 kts | 330° |
| 2026-04-25 15:51 | 36.88537 | 43.47834 | 38124 ft | 450 kts | 330° |
| 2026-04-25 15:52 | 36.94249 | 43.44616 | 38133 ft | 450 kts | 330° |
| 2026-04-25 15:52 | 36.99971 | 43.41420 | 38141 ft | 450 kts | 330° |
| 2026-04-25 15:53 | 37.05690 | 43.38218 | 38143 ft | 450 kts | 330° |
| 2026-04-25 15:53 | 37.11408 | 43.35002 | 38142 ft | 450 kts | 330° |
| 2026-04-25 15:54 | 37.17121 | 43.31782 | 38144 ft | 450 kts | 330° |
| 2026-04-25 15:54 | 37.22831 | 43.28549 | 38166 ft | 450 kts | 330° |
| 2026-04-25 15:55 | 37.28541 | 43.25318 | 38173 ft | 450 kts | 330° |
| 2026-04-25 15:55 | 37.33772 | 43.21235 | 38177 ft | 437 kts | 313° |
| 2026-04-25 15:56 | 37.37610 | 43.15511 | 38174 ft | 424 kts | 295° |
| 2026-04-25 15:56 | 37.40405 | 43.09031 | 38174 ft | 421 kts | 293° |
| 2026-04-25 15:57 | 37.43167 | 43.02532 | 38171 ft | 421 kts | 293° |
| 2026-04-25 15:57 | 37.45907 | 42.96082 | 38166 ft | 420 kts | 292° |
| 2026-04-25 15:58 | 37.48663 | 42.89598 | 38171 ft | 421 kts | 293° |
| 2026-04-25 15:58 | 37.51423 | 42.83098 | 38170 ft | 420 kts | 293° |
| 2026-04-25 15:59 | 37.54170 | 42.76605 | 38166 ft | 419 kts | 293° |
| 2026-04-25 15:59 | 37.56905 | 42.70121 | 38165 ft | 419 kts | 293° |
| 2026-04-25 16:00 | 37.58729 | 42.65786 | 38166 ft | 418 kts | 293° |
| 2026-04-25 16:00 | 37.62358 | 42.57157 | 38158 ft | 418 kts | 292° |
| 2026-04-25 16:01 | 37.65084 | 42.50684 | 38154 ft | 418 kts | 293° |
| 2026-04-25 16:01 | 37.67802 | 42.44206 | 38146 ft | 417 kts | 292° |
| 2026-04-25 16:02 | 37.70505 | 42.37743 | 38145 ft | 417 kts | 292° |
| 2026-04-25 16:02 | 37.73209 | 42.31265 | 38143 ft | 416 kts | 292° |
| 2026-04-25 16:03 | 37.75917 | 42.24786 | 38146 ft | 416 kts | 292° |
| 2026-04-25 16:03 | 37.78612 | 42.18318 | 38330 ft | 416 kts | 292° |
| 2026-04-25 16:04 | 37.79956 | 42.15087 | 38096 ft | 414 kts | 292° |
| 2026-04-25 16:04 | 37.81295 | 42.11861 | 38109 ft | 414 kts | 292° |
| 2026-04-25 16:04 | 37.83967 | 42.05405 | 38110 ft | 414 kts | 293° |
| 2026-04-25 16:05 | 37.86635 | 41.98949 | 38099 ft | 414 kts | 292° |
| 2026-04-25 16:06 | 37.90665 | 41.89280 | 38095 ft | 416 kts | 296° |
| 2026-04-25 16:06 | 37.94328 | 41.83511 | 38101 ft | 423 kts | 306° |
| 2026-04-25 16:07 | 37.98230 | 41.77927 | 38106 ft | 423 kts | 305° |
| 2026-04-25 16:07 | 38.02103 | 41.72368 | 38112 ft | 423 kts | 305° |
| 2026-04-25 16:08 | 38.05998 | 41.66758 | 38119 ft | 424 kts | 305° |
| 2026-04-25 16:08 | 38.09888 | 41.61143 | 38118 ft | 423 kts | 305° |
| 2026-04-25 16:09 | 38.13778 | 41.55522 | 38119 ft | 424 kts | 305° |
| 2026-04-25 16:09 | 38.17667 | 41.49898 | 38120 ft | 423 kts | 305° |
| 2026-04-25 16:10 | 38.21549 | 41.44273 | 38124 ft | 423 kts | 305° |
| 2026-04-25 16:10 | 38.25423 | 41.38638 | 38124 ft | 423 kts | 305° |
| 2026-04-25 16:11 | 38.29298 | 41.32990 | 38119 ft | 423 kts | 305° |
| 2026-04-25 16:11 | 38.33175 | 41.27345 | 38119 ft | 423 kts | 305° |
| 2026-04-25 16:12 | 38.37043 | 41.21694 | 38125 ft | 423 kts | 304° |
| 2026-04-25 16:12 | 38.40913 | 41.16032 | 38125 ft | 423 kts | 304° |
| 2026-04-25 16:13 | 38.44772 | 41.10374 | 38127 ft | 423 kts | 304° |
| 2026-04-25 16:13 | 38.48623 | 41.04682 | 38125 ft | 423 kts | 304° |
| 2026-04-25 16:14 | 38.52382 | 40.98920 | 38135 ft | 422 kts | 303° |
| 2026-04-25 16:14 | 38.56119 | 40.93138 | 38133 ft | 422 kts | 303° |
| 2026-04-25 16:15 | 38.59866 | 40.87346 | 38138 ft | 421 kts | 301° |
| 2026-04-25 16:15 | 38.62584 | 40.80908 | 38134 ft | 407 kts | 283° |
| 2026-04-25 16:16 | 38.63516 | 40.73877 | 38138 ft | 399 kts | 270° |
| 2026-04-25 16:16 | 38.63883 | 40.66803 | 38129 ft | 399 kts | 270° |
| 2026-04-25 16:17 | 38.64254 | 40.59730 | 38137 ft | 399 kts | 270° |
| 2026-04-25 16:17 | 38.64621 | 40.52656 | 38146 ft | 398 kts | 270° |
| 2026-04-25 16:18 | 38.64984 | 40.45587 | 38151 ft | 398 kts | 270° |
| 2026-04-25 16:18 | 38.65335 | 40.38579 | 38136 ft | 397 kts | 270° |
| 2026-04-25 16:19 | 38.65686 | 40.31484 | 38136 ft | 397 kts | 270° |
| 2026-04-25 16:19 | 38.66177 | 40.24494 | 38132 ft | 400 kts | 278° |
| 2026-04-25 16:20 | 38.67817 | 40.18879 | 38123 ft | 409 kts | 294° |
| 2026-04-25 16:20 | 38.69966 | 40.14861 | 38128 ft | 414 kts | 300° |
| 2026-04-25 16:21 | 38.75010 | 40.05866 | 38131 ft | 414 kts | 299° |
| 2026-04-25 16:21 | 38.78350 | 39.99857 | 38129 ft | 414 kts | 299° |
| 2026-04-25 16:22 | 38.81679 | 39.93850 | 38128 ft | 413 kts | 299° |
| 2026-04-25 16:22 | 38.85013 | 39.87824 | 38123 ft | 413 kts | 299° |
| 2026-04-25 16:23 | 38.88345 | 39.81816 | 38121 ft | 413 kts | 299° |
| 2026-04-25 16:23 | 38.91669 | 39.75803 | 38128 ft | 413 kts | 299° |
| 2026-04-25 16:24 | 38.94993 | 39.69776 | 38121 ft | 413 kts | 299° |
| 2026-04-25 16:24 | 38.98285 | 39.63791 | 38117 ft | 413 kts | 299° |
| 2026-04-25 16:25 | 39.01597 | 39.57749 | 38117 ft | 412 kts | 299° |
| 2026-04-25 16:25 | 39.04901 | 39.51714 | 38118 ft | 412 kts | 299° |
| 2026-04-25 16:26 | 39.08211 | 39.45668 | 38122 ft | 412 kts | 298° |
| 2026-04-25 16:26 | 39.11515 | 39.39632 | 38131 ft | 413 kts | 299° |
| 2026-04-25 16:27 | 39.14388 | 39.33323 | 38129 ft | 403 kts | 286° |
| 2026-04-25 16:27 | 39.16271 | 39.26539 | 38126 ft | 402 kts | 285° |
| 2026-04-25 16:28 | 39.18131 | 39.19798 | 38132 ft | 402 kts | 285° |
| 2026-04-25 16:28 | 39.20005 | 39.13019 | 38134 ft | 401 kts | 285° |
| 2026-04-25 16:29 | 39.21876 | 39.06229 | 38133 ft | 402 kts | 285° |
| 2026-04-25 16:29 | 39.23746 | 38.99427 | 38130 ft | 401 kts | 284° |
| 2026-04-25 16:30 | 39.25605 | 38.92625 | 38132 ft | 402 kts | 285° |
| 2026-04-25 16:30 | 39.27455 | 38.85826 | 38126 ft | 402 kts | 285° |
| 2026-04-25 16:31 | 39.29297 | 38.79051 | 38122 ft | 402 kts | 285° |
| 2026-04-25 16:31 | 39.31141 | 38.72250 | 38120 ft | 401 kts | 284° |
| 2026-04-25 16:32 | 39.32980 | 38.65457 | 38113 ft | 401 kts | 285° |
| 2026-04-25 16:32 | 39.34821 | 38.58641 | 38106 ft | 401 kts | 284° |
| 2026-04-25 16:33 | 39.36356 | 38.52941 | 38110 ft | 401 kts | 284° |
| 2026-04-25 16:33 | 39.38175 | 38.46172 | 38109 ft | 401 kts | 284° |
| 2026-04-25 16:34 | 39.40001 | 38.39369 | 38103 ft | 400 kts | 284° |
| 2026-04-25 16:34 | 39.41819 | 38.32558 | 38108 ft | 400 kts | 284° |
| 2026-04-25 16:35 | 39.43630 | 38.25755 | 38107 ft | 400 kts | 284° |
| 2026-04-25 16:35 | 39.45433 | 38.18960 | 38102 ft | 399 kts | 284° |
| 2026-04-25 16:36 | 39.47235 | 38.12155 | 38109 ft | 400 kts | 284° |
| 2026-04-25 16:36 | 39.49032 | 38.05344 | 38093 ft | 400 kts | 284° |
| 2026-04-25 16:37 | 39.50830 | 37.98526 | 38095 ft | 400 kts | 284° |
| 2026-04-25 16:37 | 39.52624 | 37.91706 | 38097 ft | 400 kts | 284° |
| 2026-04-25 16:38 | 39.54413 | 37.84887 | 38100 ft | 399 kts | 284° |
| 2026-04-25 16:38 | 39.56197 | 37.78081 | 38093 ft | 399 kts | 284° |
| 2026-04-25 16:39 | 39.57972 | 37.71277 | 38096 ft | 398 kts | 284° |
| 2026-04-25 16:39 | 39.59740 | 37.64472 | 38088 ft | 398 kts | 284° |
| 2026-04-25 16:40 | 39.61488 | 37.57717 | 38088 ft | 397 kts | 284° |
| 2026-04-25 16:40 | 39.63246 | 37.50923 | 38089 ft | 397 kts | 284° |
| 2026-04-25 16:41 | 39.64999 | 37.44132 | 38087 ft | 397 kts | 284° |
| 2026-04-25 16:41 | 39.67620 | 37.33931 | 38091 ft | 397 kts | 284° |
| 2026-04-25 16:42 | 39.69357 | 37.27125 | 38101 ft | 398 kts | 284° |
| 2026-04-25 16:42 | 39.71096 | 37.20308 | 38122 ft | 398 kts | 284° |
| 2026-04-25 16:43 | 39.72832 | 37.13484 | 38134 ft | 398 kts | 284° |
| 2026-04-25 16:43 | 39.74569 | 37.06655 | 38151 ft | 398 kts | 284° |
| 2026-04-25 16:44 | 39.76287 | 36.99867 | 38159 ft | 398 kts | 284° |
| 2026-04-25 16:44 | 39.78013 | 36.93019 | 38163 ft | 399 kts | 284° |
| 2026-04-25 16:45 | 39.79389 | 36.86086 | 38158 ft | 395 kts | 277° |
| 2026-04-25 16:45 | 39.80345 | 36.79049 | 38158 ft | 395 kts | 277° |
| 2026-04-25 16:46 | 39.81304 | 36.71999 | 38145 ft | 396 kts | 277° |
| 2026-04-25 16:46 | 39.82099 | 36.66140 | 38129 ft | 396 kts | 277° |
| 2026-04-25 16:47 | 39.83215 | 36.57885 | 38118 ft | 396 kts | 277° |
| 2026-04-25 16:47 | 39.84157 | 36.50868 | 38109 ft | 397 kts | 277° |
| 2026-04-25 16:48 | 39.85095 | 36.43792 | 38091 ft | 397 kts | 277° |
| 2026-04-25 16:48 | 39.86030 | 36.36710 | 38099 ft | 397 kts | 277° |
| 2026-04-25 16:49 | 39.87026 | 36.29629 | 38093 ft | 398 kts | 278° |
| 2026-04-25 16:49 | 39.88052 | 36.22551 | 38105 ft | 398 kts | 277° |
| 2026-04-25 16:50 | 39.89009 | 36.15454 | 38092 ft | 398 kts | 277° |
| 2026-04-25 16:50 | 39.89931 | 36.08336 | 38094 ft | 398 kts | 277° |
| 2026-04-25 16:51 | 39.90857 | 36.01224 | 38094 ft | 398 kts | 277° |
| 2026-04-25 16:51 | 39.91631 | 35.95312 | 38083 ft | 398 kts | 277° |
| 2026-04-25 16:52 | 39.92706 | 35.86996 | 38081 ft | 398 kts | 277° |
| 2026-04-25 16:52 | 39.93631 | 35.79879 | 38085 ft | 398 kts | 277° |
| 2026-04-25 16:53 | 39.95006 | 35.69246 | 38079 ft | 398 kts | 277° |
| 2026-04-25 16:54 | 39.95910 | 35.62116 | 38082 ft | 398 kts | 277° |
| 2026-04-25 16:54 | 39.96814 | 35.54979 | 38076 ft | 399 kts | 277° |
| 2026-04-25 16:55 | 39.97725 | 35.47849 | 38075 ft | 399 kts | 277° |
| 2026-04-25 16:55 | 39.98625 | 35.40704 | 38071 ft | 399 kts | 277° |
| 2026-04-25 16:56 | 39.99516 | 35.33548 | 38074 ft | 400 kts | 277° |
| 2026-04-25 16:56 | 40.00369 | 35.26380 | 38071 ft | 400 kts | 277° |
| 2026-04-25 16:57 | 40.01213 | 35.19196 | 38079 ft | 400 kts | 277° |
| 2026-04-25 16:57 | 40.02058 | 35.12014 | 38076 ft | 401 kts | 277° |
| 2026-04-25 16:58 | 40.02905 | 35.04816 | 38078 ft | 401 kts | 277° |
| 2026-04-25 16:58 | 40.03746 | 34.97632 | 38073 ft | 401 kts | 277° |
| 2026-04-25 16:59 | 40.04579 | 34.90437 | 38075 ft | 401 kts | 277° |
| 2026-04-25 16:59 | 40.05403 | 34.83236 | 38073 ft | 401 kts | 277° |
| 2026-04-25 17:00 | 40.06230 | 34.76022 | 38077 ft | 402 kts | 277° |
| 2026-04-25 17:00 | 40.07052 | 34.68806 | 38075 ft | 402 kts | 277° |
| 2026-04-25 17:01 | 40.07874 | 34.61575 | 38077 ft | 402 kts | 277° |
| 2026-04-25 17:01 | 40.08696 | 34.54350 | 38078 ft | 402 kts | 277° |
| 2026-04-25 17:02 | 40.09506 | 34.47123 | 38080 ft | 402 kts | 277° |
| 2026-04-25 17:02 | 40.10308 | 34.39872 | 38076 ft | 403 kts | 277° |
| 2026-04-25 17:03 | 40.11104 | 34.32676 | 38075 ft | 403 kts | 277° |
| 2026-04-25 17:03 | 40.11907 | 34.25428 | 38072 ft | 403 kts | 277° |
| 2026-04-25 17:03 | 40.12304 | 34.21806 | 37701 ft | 404 kts | 277° |
| 2026-04-25 17:04 | 40.12703 | 34.18162 | 38063 ft | 404 kts | 277° |
| 2026-04-25 17:04 | 40.13495 | 34.10908 | 38057 ft | 403 kts | 277° |
| 2026-04-25 17:05 | 40.14284 | 34.03643 | 38054 ft | 404 kts | 277° |
| 2026-04-25 17:05 | 40.15479 | 33.92736 | 38050 ft | 405 kts | 278° |
| 2026-04-25 17:06 | 40.16471 | 33.85488 | 38056 ft | 405 kts | 279° |
| 2026-04-25 17:06 | 40.17442 | 33.78234 | 38047 ft | 405 kts | 277° |
| 2026-04-25 17:07 | 40.18198 | 33.70908 | 38049 ft | 406 kts | 276° |
| 2026-04-25 17:07 | 40.18890 | 33.63623 | 38049 ft | 407 kts | 276° |
| 2026-04-25 17:08 | 40.19621 | 33.56272 | 38050 ft | 408 kts | 276° |
| 2026-04-25 17:08 | 40.20368 | 33.48919 | 38047 ft | 409 kts | 276° |
| 2026-04-25 17:09 | 40.21114 | 33.41528 | 38055 ft | 410 kts | 276° |
| 2026-04-25 17:09 | 40.21857 | 33.34121 | 38055 ft | 411 kts | 276° |
| 2026-04-25 17:10 | 40.22593 | 33.26700 | 38053 ft | 412 kts | 276° |
| 2026-04-25 17:10 | 40.23326 | 33.19263 | 38053 ft | 413 kts | 276° |
| 2026-04-25 17:11 | 40.24067 | 33.11803 | 38058 ft | 413 kts | 279° |
| 2026-04-25 17:11 | 40.25718 | 33.04579 | 38052 ft | 415 kts | 287° |
| 2026-04-25 17:12 | 40.27598 | 32.97423 | 38059 ft | 416 kts | 287° |
| 2026-04-25 17:12 | 40.29462 | 32.90232 | 38058 ft | 417 kts | 287° |
| 2026-04-25 17:13 | 40.30693 | 32.85465 | 38064 ft | 417 kts | 287° |
| 2026-04-25 17:13 | 40.33169 | 32.75863 | 38067 ft | 418 kts | 287° |
| 2026-04-25 17:14 | 40.35020 | 32.68635 | 38073 ft | 418 kts | 287° |
| 2026-04-25 17:14 | 40.36867 | 32.61390 | 38070 ft | 419 kts | 287° |
| 2026-04-25 17:15 | 40.38721 | 32.54143 | 38074 ft | 419 kts | 287° |
| 2026-04-25 17:15 | 40.40575 | 32.46891 | 38071 ft | 420 kts | 287° |
| 2026-04-25 17:16 | 40.42418 | 32.39624 | 38071 ft | 420 kts | 287° |
| 2026-04-25 17:16 | 40.44266 | 32.32347 | 38068 ft | 420 kts | 287° |
| 2026-04-25 17:17 | 40.46106 | 32.25066 | 38072 ft | 420 kts | 287° |
| 2026-04-25 17:17 | 40.47963 | 32.17783 | 38068 ft | 421 kts | 289° |
| 2026-04-25 17:18 | 40.50059 | 32.10589 | 38067 ft | 421 kts | 291° |
| 2026-04-25 17:18 | 40.51890 | 32.04655 | 38058 ft | 422 kts | 291° |
| 2026-04-25 17:19 | 40.54062 | 31.97489 | 38064 ft | 422 kts | 290° |
| 2026-04-25 17:19 | 40.56180 | 31.90295 | 38059 ft | 422 kts | 290° |
| 2026-04-25 17:20 | 40.58276 | 31.83084 | 38062 ft | 422 kts | 289° |
| 2026-04-25 17:20 | 40.60194 | 31.75783 | 38060 ft | 422 kts | 287° |
| 2026-04-25 17:21 | 40.61956 | 31.68404 | 38061 ft | 422 kts | 287° |
| 2026-04-25 17:21 | 40.63726 | 31.61034 | 38054 ft | 423 kts | 287° |
| 2026-04-25 17:22 | 40.65229 | 31.54901 | 38055 ft | 423 kts | 287° |
| 2026-04-25 17:22 | 40.67348 | 31.46286 | 38044 ft | 423 kts | 288° |
| 2026-04-25 17:23 | 40.69164 | 31.38903 | 38045 ft | 424 kts | 288° |
| 2026-04-25 17:23 | 40.70957 | 31.31555 | 38043 ft | 424 kts | 287° |
| 2026-04-25 17:24 | 40.72756 | 31.24123 | 37693 ft | 426 kts | 287° |
| 2026-04-25 17:24 | 40.73664 | 31.20357 | 37419 ft | 426 kts | 288° |
| 2026-04-25 17:24 | 40.74563 | 31.16627 | 37146 ft | 427 kts | 288° |
| 2026-04-25 17:25 | 40.75467 | 31.12901 | 36878 ft | 428 kts | 288° |
| 2026-04-25 17:25 | 40.76365 | 31.09208 | 36253 ft | 429 kts | 288° |
| 2026-04-25 17:25 | 40.77290 | 31.05401 | 35443 ft | 431 kts | 288° |
| 2026-04-25 17:25 | 40.78194 | 31.01659 | 34594 ft | 435 kts | 288° |
| 2026-04-25 17:26 | 40.79111 | 30.97841 | 33693 ft | 438 kts | 289° |
| 2026-04-25 17:26 | 40.80032 | 30.93993 | 32595 ft | 443 kts | 289° |
| 2026-04-25 17:26 | 40.80966 | 30.90094 | 31486 ft | 447 kts | 289° |
| 2026-04-25 17:26 | 40.81906 | 30.86175 | 30496 ft | 449 kts | 289° |
| 2026-04-25 17:27 | 40.82832 | 30.82295 | 30146 ft | 436 kts | 289° |
| 2026-04-25 17:27 | 40.83734 | 30.78500 | 29486 ft | 430 kts | 289° |
| 2026-04-25 17:27 | 40.84622 | 30.74758 | 28762 ft | 425 kts | 289° |
| 2026-04-25 17:27 | 40.85212 | 30.72260 | 28291 ft | 420 kts | 289° |
| 2026-04-25 17:28 | 40.86170 | 30.67414 | 27252 ft | 401 kts | 277° |
| 2026-04-25 17:28 | 40.86320 | 30.63860 | 27147 ft | 380 kts | 275° |
| 2026-04-25 17:28 | 40.86460 | 30.60309 | 27072 ft | 392 kts | 275° |
| 2026-04-25 17:28 | 40.86611 | 30.56697 | 26964 ft | 395 kts | 275° |
| 2026-04-25 17:29 | 40.86759 | 30.53071 | 26873 ft | 396 kts | 275° |
| 2026-04-25 17:29 | 40.86900 | 30.49442 | 26782 ft | 396 kts | 275° |
| 2026-04-25 17:29 | 40.87030 | 30.45808 | 26691 ft | 395 kts | 274° |
| 2026-04-25 17:29 | 40.87155 | 30.42180 | 26595 ft | 395 kts | 274° |
| 2026-04-25 17:30 | 40.87275 | 30.38561 | 26505 ft | 394 kts | 274° |
| 2026-04-25 17:30 | 40.87396 | 30.34939 | 26417 ft | 394 kts | 274° |
| 2026-04-25 17:30 | 40.87519 | 30.31330 | 26326 ft | 393 kts | 274° |
| 2026-04-25 17:30 | 40.87642 | 30.27718 | 26104 ft | 394 kts | 274° |
| 2026-04-25 17:31 | 40.87762 | 30.24103 | 25499 ft | 394 kts | 274° |
| 2026-04-25 17:31 | 40.87878 | 30.20482 | 24869 ft | 394 kts | 274° |
| 2026-04-25 17:31 | 40.87991 | 30.16872 | 24249 ft | 394 kts | 274° |
| 2026-04-25 17:31 | 40.88105 | 30.13253 | 23635 ft | 394 kts | 274° |
| 2026-04-25 17:32 | 40.88221 | 30.09643 | 22986 ft | 392 kts | 274° |
| 2026-04-25 17:32 | 40.88336 | 30.06060 | 22411 ft | 389 kts | 274° |
| 2026-04-25 17:32 | 40.88446 | 30.02500 | 21712 ft | 386 kts | 273° |
| 2026-04-25 17:32 | 40.88551 | 29.98988 | 21314 ft | 379 kts | 273° |
| 2026-04-25 17:33 | 40.88651 | 29.95569 | 20794 ft | 376 kts | 272° |
| 2026-04-25 17:33 | 40.88752 | 29.92088 | 20241 ft | 373 kts | 272° |
| 2026-04-25 17:33 | 40.88856 | 29.88715 | 19703 ft | 370 kts | 273° |
| 2026-04-25 17:33 | 40.88964 | 29.85329 | 19136 ft | 368 kts | 273° |
| 2026-04-25 17:34 | 40.89063 | 29.81959 | 18570 ft | 366 kts | 272° |
| 2026-04-25 17:34 | 40.89159 | 29.78603 | 17933 ft | 365 kts | 272° |
| 2026-04-25 17:34 | 40.89253 | 29.75267 | 17324 ft | 362 kts | 272° |
| 2026-04-25 17:34 | 40.89348 | 29.71957 | 16719 ft | 359 kts | 272° |
| 2026-04-25 17:35 | 40.89442 | 29.68671 | 16116 ft | 356 kts | 272° |
| 2026-04-25 17:35 | 40.89532 | 29.65414 | 15509 ft | 354 kts | 272° |
| 2026-04-25 17:35 | 40.89621 | 29.62171 | 14902 ft | 352 kts | 272° |
| 2026-04-25 17:35 | 40.89708 | 29.58949 | 14300 ft | 350 kts | 271° |
| 2026-04-25 17:36 | 40.89793 | 29.55751 | 13684 ft | 348 kts | 271° |
| 2026-04-25 17:36 | 40.89878 | 29.52567 | 13040 ft | 345 kts | 271° |
| 2026-04-25 17:36 | 40.89963 | 29.49418 | 12443 ft | 341 kts | 271° |
| 2026-04-25 17:36 | 40.90045 | 29.46297 | 11600 ft | 343 kts | 271° |
| 2026-04-25 17:37 | 40.90129 | 29.43079 | 10399 ft | 355 kts | 271° |
| 2026-04-25 17:37 | 40.90214 | 29.39761 | 9043 ft | 367 kts | 271° |
| 2026-04-25 17:37 | 40.90299 | 29.36372 | 7943 ft | 369 kts | 271° |
| 2026-04-25 17:37 | 40.90385 | 29.33008 | 7008 ft | 364 kts | 271° |
| 2026-04-25 17:38 | 40.90470 | 29.29710 | 5962 ft | 352 kts | 271° |
| 2026-04-25 17:38 | 40.90524 | 29.27604 | 5365 ft | 338 kts | 271° |
| 2026-04-25 17:38 | 40.90624 | 29.23632 | 5049 ft | 311 kts | 271° |
| 2026-04-25 17:38 | 40.90693 | 29.20862 | 4995 ft | 292 kts | 271° |
| 2026-04-25 17:39 | 40.90754 | 29.18269 | 5007 ft | 273 kts | 270° |
| 2026-04-25 17:39 | 40.90812 | 29.15815 | 5005 ft | 265 kts | 270° |
| 2026-04-25 17:39 | 40.90866 | 29.13381 | 5004 ft | 265 kts | 270° |
| 2026-04-25 17:39 | 40.90917 | 29.10951 | 5005 ft | 264 kts | 270° |
| 2026-04-25 17:40 | 40.90970 | 29.08523 | 5001 ft | 264 kts | 270° |
| 2026-04-25 17:40 | 40.91025 | 29.06178 | 4998 ft | 251 kts | 271° |
| 2026-04-25 17:40 | 40.91079 | 29.03941 | 5000 ft | 237 kts | 270° |
| 2026-04-25 17:40 | 40.91135 | 29.01785 | 5001 ft | 234 kts | 273° |
| 2026-04-25 17:41 | 40.91456 | 28.99685 | 5002 ft | 234 kts | 287° |
| 2026-04-25 17:41 | 40.91973 | 28.97642 | 5003 ft | 234 kts | 287° |
| 2026-04-25 17:41 | 40.92486 | 28.95595 | 5007 ft | 234 kts | 287° |
| 2026-04-25 17:41 | 40.92994 | 28.93543 | 5009 ft | 240 kts | 285° |
| 2026-04-25 17:42 | 40.93106 | 28.91239 | 5014 ft | 260 kts | 258° |
| 2026-04-25 17:42 | 40.92346 | 28.89073 | 4901 ft | 264 kts | 230° |
| 2026-04-25 17:42 | 40.90897 | 28.87642 | 4645 ft | 262 kts | 202° |
| 2026-04-25 17:42 | 40.89114 | 28.87140 | 4394 ft | 263 kts | 187° |
| 2026-04-25 17:43 | 40.87294 | 28.86875 | 4142 ft | 263 kts | 186° |
| 2026-04-25 17:43 | 40.85474 | 28.86624 | 4005 ft | 263 kts | 186° |
| 2026-04-25 17:43 | 40.83647 | 28.86370 | 3998 ft | 264 kts | 186° |
| 2026-04-25 17:43 | 40.81870 | 28.85803 | 3999 ft | 263 kts | 207° |
| 2026-04-25 17:44 | 40.80499 | 28.84237 | 4002 ft | 263 kts | 236° |
| 2026-04-25 17:44 | 40.79874 | 28.81994 | 4004 ft | 264 kts | 264° |
| 2026-04-25 17:44 | 40.80147 | 28.79626 | 4000 ft | 265 kts | 293° |
| 2026-04-25 17:44 | 40.81137 | 28.77566 | 3998 ft | 266 kts | 311° |
| 2026-04-25 17:45 | 40.82643 | 28.76183 | 4007 ft | 267 kts | 340° |
| 2026-04-25 17:45 | 40.83248 | 28.75946 | 4002 ft | 268 kts | 346° |
| 2026-04-25 17:45 | 40.86308 | 28.75253 | 4007 ft | 268 kts | 351° |
| 2026-04-25 17:45 | 40.88151 | 28.74901 | 4004 ft | 266 kts | 354° |
| 2026-04-25 17:46 | 40.89951 | 28.74962 | 4005 ft | 251 kts | 5° |
| 2026-04-25 17:46 | 40.91611 | 28.75192 | 4001 ft | 235 kts | 6° |
| 2026-04-25 17:46 | 40.93182 | 28.75426 | 4011 ft | 219 kts | 6° |
| 2026-04-25 17:46 | 40.94643 | 28.75649 | 4004 ft | 204 kts | 6° |
| 2026-04-25 17:47 | 40.95989 | 28.75977 | 4010 ft | 190 kts | 9° |
| 2026-04-25 17:47 | 40.97227 | 28.76135 | 4035 ft | 166 kts | 2° |
| 2026-04-25 17:47 | 40.98299 | 28.76164 | 3999 ft | 143 kts | 360° |
| 2026-04-25 17:47 | 40.99351 | 28.76162 | 4036 ft | 171 kts | 359° |
| 2026-04-25 17:48 | 41.02070 | 28.76125 | 4002 ft | 202 kts | 359° |
| 2026-04-25 17:48 | 41.03474 | 28.76099 | 4011 ft | 202 kts | 359° |
| 2026-04-25 17:48 | 41.04880 | 28.76073 | 4010 ft | 202 kts | 359° |
| 2026-04-25 17:49 | 41.06286 | 28.76047 | 4004 ft | 202 kts | 359° |
| 2026-04-25 17:49 | 41.07692 | 28.76020 | 3882 ft | 202 kts | 359° |
| 2026-04-25 17:49 | 41.09090 | 28.75994 | 3646 ft | 200 kts | 359° |
| 2026-04-25 17:49 | 41.10476 | 28.75968 | 3397 ft | 198 kts | 359° |
| 2026-04-25 17:50 | 41.11386 | 28.75951 | 3218 ft | 197 kts | 359° |
| 2026-04-25 17:50 | 41.13216 | 28.75916 | 2869 ft | 196 kts | 359° |
| 2026-04-25 17:50 | 41.14536 | 28.75891 | 2620 ft | 182 kts | 359° |
| 2026-04-25 17:50 | 41.15731 | 28.75868 | 2394 ft | 162 kts | 360° |
| 2026-04-25 17:51 | 41.16834 | 28.75847 | 2183 ft | 157 kts | 0° |
| 2026-04-25 17:51 | 41.17916 | 28.75827 | 1975 ft | 155 kts | 0° |
| 2026-04-25 17:51 | 41.18989 | 28.75807 | 1761 ft | 154 kts | 1° |
| 2026-04-25 17:51 | 41.20059 | 28.75787 | 1560 ft | 154 kts | 1° |
| 2026-04-25 17:52 | 41.21131 | 28.75767 | 1350 ft | 154 kts | 1° |
| 2026-04-25 17:52 | 41.21843 | 28.75753 | 1216 ft | 154 kts | 1° |
| 2026-04-25 17:52 | 41.23261 | 28.75726 | 941 ft | 154 kts | 1° |
| 2026-04-25 17:52 | 41.24319 | 28.75706 | 737 ft | 146 kts | 2° |
| 2026-04-25 17:53 | 41.25284 | 28.75684 | 535 ft | 134 kts | 2° |
| 2026-04-25 17:53 | 41.26197 | 28.75663 | 366 ft | 129 kts | 1° |
| 2026-04-25 17:53 | 41.27036 | 28.75651 | 321 ft | 98 kts | 360° |
| 2026-04-25 17:53 | 41.27589 | 28.75646 | 313 ft | 64 kts | 360° |
| 2026-04-25 17:54 | 41.27960 | 28.75643 | 305 ft | 44 kts | 359° |
| 2026-04-25 17:54 | 41.28222 | 28.75613 | 301 ft | 26 kts | 332° |
| 2026-04-25 17:54 | 41.28405 | 28.75512 | 272 ft | 32 kts | 327° |
| 2026-04-25 17:54 | 41.28438 | 28.75419 | 259 ft | 0 kts | 265° |
| 2026-04-25 17:57 | 41.28437 | 28.75409 | 258 ft | 6 kts | 259° |
| 2026-04-25 17:57 | 41.28348 | 28.75350 | 260 ft | 23 kts | 180° |
| 2026-04-25 17:57 | 41.28141 | 28.75356 | 269 ft | 36 kts | 178° |
| 2026-04-25 17:57 | 41.28052 | 28.75358 | 277 ft | 39 kts | 178° |
| 2026-04-25 17:58 | 41.27753 | 28.75360 | 290 ft | 26 kts | 180° |
| 2026-04-25 17:58 | 41.27597 | 28.75364 | 299 ft | 4 kts | 176° |
| 2026-04-25 17:58 | 41.27561 | 28.75366 | 299 ft | 8 kts | 181° |
| 2026-04-25 17:58 | 41.27391 | 28.75366 | 301 ft | 33 kts | 178° |
| 2026-04-25 17:59 | 41.27198 | 28.75373 | 305 ft | 11 kts | 181° |
| 2026-04-25 17:59 | 41.27096 | 28.75370 | 307 ft | 20 kts | 180° |
| 2026-04-25 17:59 | 41.26924 | 28.75374 | 310 ft | 28 kts | 178° |
| 2026-04-25 17:59 | 41.26721 | 28.75374 | 311 ft | 31 kts | 179° |
| 2026-04-25 18:00 | 41.26631 | 28.75348 | 311 ft | 15 kts | 238° |
| 2026-04-25 18:00 | 41.26620 | 28.75291 | 312 ft | 3 kts | 269° |
| 2026-04-25 18:00 | 41.26620 | 28.75239 | 312 ft | 8 kts | 270° |
| 2026-04-25 18:00 | 41.26620 | 28.75211 | 312 ft | 0 kts | 270° |
| 2026-04-25 18:02 | 41.26620 | 28.75200 | 312 ft | 6 kts | 270° |
| 2026-04-25 18:02 | 41.26631 | 28.75164 | 312 ft | 7 kts | 304° |
| 2026-04-25 18:03 | 41.26659 | 28.75108 | 314 ft | 5 kts | 292° |
| 2026-04-25 18:03 | 41.26665 | 28.75061 | 314 ft | 1 kts | 277° |
| 2026-04-25 18:03 | 41.26668 | 28.75035 | 314 ft | 3 kts | 277° |
| 2026-04-25 18:03 | 41.26670 | 28.75015 | 314 ft | 1 kts | 278° |
| 2026-04-25 18:04 | 41.26670 | 28.75013 | 314 ft | 0 kts | 278° |